Ellensburg, WA (98926)

11:40 PM PDT on August 23, 2016 (GMT -0700)
Ellensburg WA | | Change Station

Elev 1541 ft 47.00 °N, 120.55 °W | Updated 14 minutes ago

Clear
Clear
61.7 °F
Feels Like 61.7 °F
N
3.0
Wind Variable Wind from NNW
Gusts 3.0 mph

Today
High -- | Low -- °F
--% Chance of Precip.
Yesterday
High -- | Low -- °F
Precip. -- in
Pressure 30.15 in
Visibility 10.0 miles
Clouds Clear
Dew Point 49 °F
Humidity 64%
Rainfall 0.00 in
Snow Depth Not available.
6:10 AM 7:57 PM
Waning Gibbous, 60% visible
METAR KELN 240553Z AUTO 31010KT 10SM CLR 18/09 A3017 RMK AO2 SLP210 T01780089 10294 20172 51017
Pressure 30.15 in
Visibility 10.0 miles
Clouds Clear
Dew Point 49 °F
Humidity 64%
Rainfall 0.00 in
Snow Depth Not available.
6:10 AM 7:57 PM
Waning Gibbous, 60% visible
METAR KELN 240553Z AUTO 31010KT 10SM CLR 18/09 A3017 RMK AO2 SLP210 T01780089 10294 20172 51017

10-Day Weather Forecast

Almanac

Astronomy

Aug. 23, 2016 Rise Set
Actual Time
Civil Twilight
Nautical Twilight
Astronomical Twilight
Moon
Length of Visible Light
Length of Day
Tomorrow will be .
, % of the Moon is Illuminated

Today's Extremes

State Highs State Lows

Community

WunderPhotos

Upload Photos

1,934,555 photos uploaded!

WunderBlog® & News

Nearby

Air Quality

  Air Quality AQ Index Pollutant
Not available.

Snow Depth

Station Depth Elevation

Earthquake Activity

City Distance Mag. Time & Date
Minimum magnitude displayed is 2.5.

Coastal Water Temperatures

Place Temperature

Stations

Nearby Weather Stations

Station Location Temp. Windchill Dew Point Humidity Wind Precip. Elev Updated Type
                   

Watches & Warnings

There are currently no watches in effect.